sensor_id;sensor_type;location;lat;lon;timestamp;temperature;humidity
16663;DHT22;8445;51.270;9.434;2024-01-11T00:01:32;-5.90;63.60
16663;DHT22;8445;51.270;9.434;2024-01-11T00:04:01;-5.90;63.40
16663;DHT22;8445;51.270;9.434;2024-01-11T00:06:27;-6.00;63.30
16663;DHT22;8445;51.270;9.434;2024-01-11T00:08:53;-6.00;63.40
16663;DHT22;8445;51.270;9.434;2024-01-11T00:11:19;-6.00;63.40
16663;DHT22;8445;51.270;9.434;2024-01-11T00:13:45;-6.00;63.60
16663;DHT22;8445;51.270;9.434;2024-01-11T00:16:15;-6.00;63.90
16663;DHT22;8445;51.270;9.434;2024-01-11T00:18:43;-6.00;63.90
16663;DHT22;8445;51.270;9.434;2024-01-11T00:21:10;-6.00;64.00
16663;DHT22;8445;51.270;9.434;2024-01-11T00:23:36;-6.00;64.00
16663;DHT22;8445;51.270;9.434;2024-01-11T00:26:02;-6.00;64.00
16663;DHT22;8445;51.270;9.434;2024-01-11T00:28:28;-6.00;63.60
16663;DHT22;8445;51.270;9.434;2024-01-11T00:30:54;-6.10;63.40
16663;DHT22;8445;51.270;9.434;2024-01-11T00:33:20;-6.10;63.30
16663;DHT22;8445;51.270;9.434;2024-01-11T00:35:46;-6.10;63.30
16663;DHT22;8445;51.270;9.434;2024-01-11T00:38:12;-6.20;63.30
16663;DHT22;8445;51.270;9.434;2024-01-11T00:40:40;-6.30;63.20
16663;DHT22;8445;51.270;9.434;2024-01-11T00:43:06;-6.30;63.40
16663;DHT22;8445;51.270;9.434;2024-01-11T00:45:31;-6.30;63.50
16663;DHT22;8445;51.270;9.434;2024-01-11T00:47:57;-6.30;63.70
16663;DHT22;8445;51.270;9.434;2024-01-11T00:50:23;-6.30;63.70
16663;DHT22;8445;51.270;9.434;2024-01-11T00:52:49;-6.40;63.70
16663;DHT22;8445;51.270;9.434;2024-01-11T00:55:15;-6.30;63.70
16663;DHT22;8445;51.270;9.434;2024-01-11T00:57:41;-6.40;63.70
16663;DHT22;8445;51.270;9.434;2024-01-11T01:00:08;-6.40;63.80
16663;DHT22;8445;51.270;9.434;2024-01-11T01:02:39;-6.40;63.90
16663;DHT22;8445;51.270;9.434;2024-01-11T01:05:08;-6.40;63.90
16663;DHT22;8445;51.270;9.434;2024-01-11T01:07:34;-6.50;63.90
16663;DHT22;8445;51.270;9.434;2024-01-11T01:10:00;-6.50;64.00
16663;DHT22;8445;51.270;9.434;2024-01-11T01:12:26;-6.50;64.20
16663;DHT22;8445;51.270;9.434;2024-01-11T01:14:52;-6.50;64.10
16663;DHT22;8445;51.270;9.434;2024-01-11T01:17:18;-6.50;64.10
16663;DHT22;8445;51.270;9.434;2024-01-11T01:19:44;-6.50;64.00
16663;DHT22;8445;51.270;9.434;2024-01-11T01:22:10;-6.60;64.20
16663;DHT22;8445;51.270;9.434;2024-01-11T01:24:36;-6.60;64.10
16663;DHT22;8445;51.270;9.434;2024-01-11T01:27:02;-6.60;64.20
16663;DHT22;8445;51.270;9.434;2024-01-11T01:29:28;-6.60;63.90
16663;DHT22;8445;51.270;9.434;2024-01-11T01:31:54;-6.60;63.70
16663;DHT22;8445;51.270;9.434;2024-01-11T01:34:20;-6.60;63.60
16663;DHT22;8445;51.270;9.434;2024-01-11T01:36:46;-6.70;63.80
16663;DHT22;8445;51.270;9.434;2024-01-11T01:39:11;-6.70;64.00
16663;DHT22;8445;51.270;9.434;2024-01-11T01:41:38;-6.70;63.90
16663;DHT22;8445;51.270;9.434;2024-01-11T01:44:04;-6.70;63.70
16663;DHT22;8445;51.270;9.434;2024-01-11T01:46:30;-6.80;63.50
16663;DHT22;8445;51.270;9.434;2024-01-11T01:48:57;-6.80;63.40
16663;DHT22;8445;51.270;9.434;2024-01-11T01:51:26;-6.90;63.40
16663;DHT22;8445;51.270;9.434;2024-01-11T01:53:54;-7.00;63.30
16663;DHT22;8445;51.270;9.434;2024-01-11T01:56:22;-7.00;63.40
16663;DHT22;8445;51.270;9.434;2024-01-11T01:58:52;-7.00;63.40
16663;DHT22;8445;51.270;9.434;2024-01-11T02:01:20;-7.10;63.40
16663;DHT22;8445;51.270;9.434;2024-01-11T02:03:50;-7.10;63.40
16663;DHT22;8445;51.270;9.434;2024-01-11T02:06:22;-7.10;63.30
16663;DHT22;8445;51.270;9.434;2024-01-11T02:08:52;-7.10;63.30
16663;DHT22;8445;51.270;9.434;2024-01-11T02:11:20;-7.20;63.40
16663;DHT22;8445;51.270;9.434;2024-01-11T02:13:50;-7.20;63.40
16663;DHT22;8445;51.270;9.434;2024-01-11T02:16:16;-7.20;63.80
16663;DHT22;8445;51.270;9.434;2024-01-11T02:18:42;-7.30;63.90
16663;DHT22;8445;51.270;9.434;2024-01-11T02:21:12;-7.40;63.60
16663;DHT22;8445;51.270;9.434;2024-01-11T02:23:44;-7.50;63.50
16663;DHT22;8445;51.270;9.434;2024-01-11T02:26:22;-7.50;63.70
16663;DHT22;8445;51.270;9.434;2024-01-11T02:28:48;-7.60;64.40
16663;DHT22;8445;51.270;9.434;2024-01-11T02:31:14;-7.70;64.50
16663;DHT22;8445;51.270;9.434;2024-01-11T02:33:42;-7.70;64.20
16663;DHT22;8445;51.270;9.434;2024-01-11T02:36:09;-7.80;64.00
16663;DHT22;8445;51.270;9.434;2024-01-11T02:38:36;-7.90;63.90
16663;DHT22;8445;51.270;9.434;2024-01-11T02:41:05;-7.90;64.00
16663;DHT22;8445;51.270;9.434;2024-01-11T02:43:32;-7.90;64.00
16663;DHT22;8445;51.270;9.434;2024-01-11T02:45:58;-8.00;64.50
16663;DHT22;8445;51.270;9.434;2024-01-11T02:48:29;-8.00;64.70
16663;DHT22;8445;51.270;9.434;2024-01-11T02:50:56;-8.10;64.50
16663;DHT22;8445;51.270;9.434;2024-01-11T02:53:23;-8.10;64.40
16663;DHT22;8445;51.270;9.434;2024-01-11T02:55:51;-8.10;64.40
16663;DHT22;8445;51.270;9.434;2024-01-11T02:58:17;-8.10;64.30
16663;DHT22;8445;51.270;9.434;2024-01-11T03:00:43;-8.20;64.20
16663;DHT22;8445;51.270;9.434;2024-01-11T03:03:08;-8.20;64.20
16663;DHT22;8445;51.270;9.434;2024-01-11T03:05:37;-8.20;64.20
16663;DHT22;8445;51.270;9.434;2024-01-11T03:08:04;-8.20;64.30
16663;DHT22;8445;51.270;9.434;2024-01-11T03:10:30;-8.20;64.30
16663;DHT22;8445;51.270;9.434;2024-01-11T03:12:57;-8.30;64.50
16663;DHT22;8445;51.270;9.434;2024-01-11T03:15:24;-8.30;64.70
16663;DHT22;8445;51.270;9.434;2024-01-11T03:17:54;-8.30;64.60
16663;DHT22;8445;51.270;9.434;2024-01-11T03:20:23;-8.40;64.60
16663;DHT22;8445;51.270;9.434;2024-01-11T03:22:54;-8.40;64.70
16663;DHT22;8445;51.270;9.434;2024-01-11T03:25:20;-8.40;64.80
16663;DHT22;8445;51.270;9.434;2024-01-11T03:27:48;-8.50;64.80
16663;DHT22;8445;51.270;9.434;2024-01-11T03:30:14;-8.50;65.00
16663;DHT22;8445;51.270;9.434;2024-01-11T03:32:44;-8.50;64.90
16663;DHT22;8445;51.270;9.434;2024-01-11T03:35:13;-8.50;64.80
16663;DHT22;8445;51.270;9.434;2024-01-11T03:37:39;-8.50;64.80
16663;DHT22;8445;51.270;9.434;2024-01-11T03:40:05;-8.50;64.80
16663;DHT22;8445;51.270;9.434;2024-01-11T03:42:39;-8.50;64.90
16663;DHT22;8445;51.270;9.434;2024-01-11T03:45:05;-8.50;64.80
16663;DHT22;8445;51.270;9.434;2024-01-11T03:47:32;-8.50;64.70
16663;DHT22;8445;51.270;9.434;2024-01-11T03:49:57;-8.50;64.70
16663;DHT22;8445;51.270;9.434;2024-01-11T03:52:23;-8.60;64.60
16663;DHT22;8445;51.270;9.434;2024-01-11T03:54:49;-8.60;64.70
16663;DHT22;8445;51.270;9.434;2024-01-11T03:57:15;-8.70;64.70
16663;DHT22;8445;51.270;9.434;2024-01-11T03:59:42;-8.70;65.40
16663;DHT22;8445;51.270;9.434;2024-01-11T04:02:11;-8.80;65.30
16663;DHT22;8445;51.270;9.434;2024-01-11T04:04:45;-8.80;65.30
16663;DHT22;8445;51.270;9.434;2024-01-11T04:07:10;-8.80;65.40
16663;DHT22;8445;51.270;9.434;2024-01-11T04:09:38;-8.80;65.40
16663;DHT22;8445;51.270;9.434;2024-01-11T04:12:04;-8.90;65.40
16663;DHT22;8445;51.270;9.434;2024-01-11T04:14:31;-8.90;65.30
16663;DHT22;8445;51.270;9.434;2024-01-11T04:16:57;-8.90;65.30
16663;DHT22;8445;51.270;9.434;2024-01-11T04:19:23;-8.90;65.30
16663;DHT22;8445;51.270;9.434;2024-01-11T04:21:49;-8.90;65.40
16663;DHT22;8445;51.270;9.434;2024-01-11T04:24:15;-8.90;65.70
16663;DHT22;8445;51.270;9.434;2024-01-11T04:26:41;-8.90;65.60
16663;DHT22;8445;51.270;9.434;2024-01-11T04:29:07;-8.90;65.60
16663;DHT22;8445;51.270;9.434;2024-01-11T04:31:33;-8.90;66.00
16663;DHT22;8445;51.270;9.434;2024-01-11T04:33:59;-8.80;66.40
16663;DHT22;8445;51.270;9.434;2024-01-11T04:36:25;-8.80;66.50
16663;DHT22;8445;51.270;9.434;2024-01-11T04:38:51;-8.80;66.30
16663;DHT22;8445;51.270;9.434;2024-01-11T04:41:17;-8.80;66.80
16663;DHT22;8445;51.270;9.434;2024-01-11T04:43:44;-8.80;66.90
16663;DHT22;8445;51.270;9.434;2024-01-11T04:46:21;-8.80;66.80
16663;DHT22;8445;51.270;9.434;2024-01-11T04:48:49;-8.80;66.80
16663;DHT22;8445;51.270;9.434;2024-01-11T04:51:19;-8.80;66.70
16663;DHT22;8445;51.270;9.434;2024-01-11T04:53:46;-8.80;66.50
16663;DHT22;8445;51.270;9.434;2024-01-11T04:56:15;-8.80;66.40
16663;DHT22;8445;51.270;9.434;2024-01-11T04:58:44;-8.70;66.50
16663;DHT22;8445;51.270;9.434;2024-01-11T05:01:14;-8.70;66.20
16663;DHT22;8445;51.270;9.434;2024-01-11T05:03:42;-8.80;66.00
16663;DHT22;8445;51.270;9.434;2024-01-11T05:06:14;-8.80;66.00
16663;DHT22;8445;51.270;9.434;2024-01-11T05:08:40;-8.80;66.00
16663;DHT22;8445;51.270;9.434;2024-01-11T05:11:06;-8.90;65.90
16663;DHT22;8445;51.270;9.434;2024-01-11T05:13:32;-8.90;65.90
16663;DHT22;8445;51.270;9.434;2024-01-11T05:15:58;-9.00;65.90
16663;DHT22;8445;51.270;9.434;2024-01-11T05:18:24;-9.00;65.80
16663;DHT22;8445;51.270;9.434;2024-01-11T05:20:50;-9.00;65.80
16663;DHT22;8445;51.270;9.434;2024-01-11T05:23:17;-9.00;65.80
16663;DHT22;8445;51.270;9.434;2024-01-11T05:25:43;-9.00;65.90
16663;DHT22;8445;51.270;9.434;2024-01-11T05:28:09;-9.00;65.90
16663;DHT22;8445;51.270;9.434;2024-01-11T05:30:38;-9.00;66.00
16663;DHT22;8445;51.270;9.434;2024-01-11T05:33:04;-9.10;65.90
16663;DHT22;8445;51.270;9.434;2024-01-11T05:35:31;-9.10;66.10
16663;DHT22;8445;51.270;9.434;2024-01-11T05:37:59;-9.10;66.60
16663;DHT22;8445;51.270;9.434;2024-01-11T05:40:25;-9.10;66.90
16663;DHT22;8445;51.270;9.434;2024-01-11T05:42:54;-9.10;67.00
16663;DHT22;8445;51.270;9.434;2024-01-11T05:45:20;-9.10;67.00
16663;DHT22;8445;51.270;9.434;2024-01-11T05:47:46;-9.10;67.10
16663;DHT22;8445;51.270;9.434;2024-01-11T05:50:14;-9.10;67.80
16663;DHT22;8445;51.270;9.434;2024-01-11T05:52:43;-9.10;67.80
16663;DHT22;8445;51.270;9.434;2024-01-11T05:55:09;-9.10;67.80
16663;DHT22;8445;51.270;9.434;2024-01-11T05:57:34;-9.10;67.80
16663;DHT22;8445;51.270;9.434;2024-01-11T06:00:01;-9.10;67.80
16663;DHT22;8445;51.270;9.434;2024-01-11T06:02:32;-9.10;67.80
16663;DHT22;8445;51.270;9.434;2024-01-11T06:04:57;-9.10;67.80
16663;DHT22;8445;51.270;9.434;2024-01-11T06:07:24;-9.10;67.80
16663;DHT22;8445;51.270;9.434;2024-01-11T06:09:52;-9.10;68.20
16663;DHT22;8445;51.270;9.434;2024-01-11T06:12:20;-9.00;68.40
16663;DHT22;8445;51.270;9.434;2024-01-11T06:14:47;-9.00;68.30
16663;DHT22;8445;51.270;9.434;2024-01-11T06:17:17;-9.00;68.50
16663;DHT22;8445;51.270;9.434;2024-01-11T06:19:45;-9.00;69.50
16663;DHT22;8445;51.270;9.434;2024-01-11T06:22:21;-9.00;69.80
16663;DHT22;8445;51.270;9.434;2024-01-11T06:24:49;-8.90;69.90
16663;DHT22;8445;51.270;9.434;2024-01-11T06:27:24;-8.90;69.40
16663;DHT22;8445;51.270;9.434;2024-01-11T06:29:50;-8.90;69.00
16663;DHT22;8445;51.270;9.434;2024-01-11T06:32:16;-8.90;68.70
16663;DHT22;8445;51.270;9.434;2024-01-11T06:34:42;-8.90;68.30
16663;DHT22;8445;51.270;9.434;2024-01-11T06:37:11;-8.90;68.20
16663;DHT22;8445;51.270;9.434;2024-01-11T06:39:38;-9.00;68.20
16663;DHT22;8445;51.270;9.434;2024-01-11T06:42:04;-9.00;68.20
16663;DHT22;8445;51.270;9.434;2024-01-11T06:44:30;-9.00;68.30
16663;DHT22;8445;51.270;9.434;2024-01-11T06:46:58;-9.00;68.40
16663;DHT22;8445;51.270;9.434;2024-01-11T06:49:29;-9.10;68.30
16663;DHT22;8445;51.270;9.434;2024-01-11T06:51:54;-9.00;68.40
16663;DHT22;8445;51.270;9.434;2024-01-11T06:54:20;-9.10;68.30
16663;DHT22;8445;51.270;9.434;2024-01-11T06:56:46;-9.00;68.30
16663;DHT22;8445;51.270;9.434;2024-01-11T06:59:12;-9.00;68.30
16663;DHT22;8445;51.270;9.434;2024-01-11T07:01:40;-9.00;68.30
16663;DHT22;8445;51.270;9.434;2024-01-11T07:04:06;-9.00;68.20
16663;DHT22;8445;51.270;9.434;2024-01-11T07:06:34;-9.00;68.00
16663;DHT22;8445;51.270;9.434;2024-01-11T07:09:00;-9.00;68.10
16663;DHT22;8445;51.270;9.434;2024-01-11T07:11:28;-9.00;68.20
16663;DHT22;8445;51.270;9.434;2024-01-11T07:13:54;-8.90;68.20
16663;DHT22;8445;51.270;9.434;2024-01-11T07:16:21;-9.00;68.40
16663;DHT22;8445;51.270;9.434;2024-01-11T07:18:47;-8.90;68.30
16663;DHT22;8445;51.270;9.434;2024-01-11T07:21:13;-8.90;68.20
16663;DHT22;8445;51.270;9.434;2024-01-11T07:23:39;-8.90;68.20
16663;DHT22;8445;51.270;9.434;2024-01-11T07:26:04;-8.80;68.10
16663;DHT22;8445;51.270;9.434;2024-01-11T07:28:30;-8.80;68.20
16663;DHT22;8445;51.270;9.434;2024-01-11T07:30:56;-8.80;68.40
16663;DHT22;8445;51.270;9.434;2024-01-11T07:33:22;-8.70;68.60
16663;DHT22;8445;51.270;9.434;2024-01-11T07:35:48;-8.70;68.60
16663;DHT22;8445;51.270;9.434;2024-01-11T07:38:14;-8.60;68.40
16663;DHT22;8445;51.270;9.434;2024-01-11T07:40:40;-8.60;68.30
16663;DHT22;8445;51.270;9.434;2024-01-11T07:43:06;-8.50;68.30
16663;DHT22;8445;51.270;9.434;2024-01-11T07:45:32;-8.50;68.20
16663;DHT22;8445;51.270;9.434;2024-01-11T07:47:57;-8.50;68.40
16663;DHT22;8445;51.270;9.434;2024-01-11T07:50:24;-8.50;68.60
16663;DHT22;8445;51.270;9.434;2024-01-11T07:52:50;-8.40;68.70
16663;DHT22;8445;51.270;9.434;2024-01-11T07:55:16;-8.30;68.80
16663;DHT22;8445;51.270;9.434;2024-01-11T07:57:42;-8.20;68.80
16663;DHT22;8445;51.270;9.434;2024-01-11T08:00:08;-8.20;69.60
16663;DHT22;8445;51.270;9.434;2024-01-11T08:02:40;-8.10;70.70
16663;DHT22;8445;51.270;9.434;2024-01-11T08:05:07;-8.10;70.50
16663;DHT22;8445;51.270;9.434;2024-01-11T08:07:34;-8.00;70.60
16663;DHT22;8445;51.270;9.434;2024-01-11T08:10:01;-7.90;70.30
16663;DHT22;8445;51.270;9.434;2024-01-11T08:12:27;-7.90;69.90
16663;DHT22;8445;51.270;9.434;2024-01-11T08:14:53;-7.80;69.60
16663;DHT22;8445;51.270;9.434;2024-01-11T08:17:21;-7.80;69.30
16663;DHT22;8445;51.270;9.434;2024-01-11T08:19:47;-7.70;69.10
16663;DHT22;8445;51.270;9.434;2024-01-11T08:22:13;-7.70;68.90
16663;DHT22;8445;51.270;9.434;2024-01-11T08:24:39;-7.70;69.00
16663;DHT22;8445;51.270;9.434;2024-01-11T08:27:05;-7.70;68.90
16663;DHT22;8445;51.270;9.434;2024-01-11T08:29:31;-7.70;68.80
16663;DHT22;8445;51.270;9.434;2024-01-11T08:31:57;-7.70;68.80
16663;DHT22;8445;51.270;9.434;2024-01-11T08:34:23;-7.70;68.80
16663;DHT22;8445;51.270;9.434;2024-01-11T08:36:52;-7.60;68.80
16663;DHT22;8445;51.270;9.434;2024-01-11T08:39:17;-7.60;68.70
16663;DHT22;8445;51.270;9.434;2024-01-11T08:41:46;-7.50;68.70
16663;DHT22;8445;51.270;9.434;2024-01-11T08:44:12;-7.50;68.60
16663;DHT22;8445;51.270;9.434;2024-01-11T08:46:38;-7.40;68.60
16663;DHT22;8445;51.270;9.434;2024-01-11T08:49:03;-7.30;68.50
16663;DHT22;8445;51.270;9.434;2024-01-11T08:51:30;-7.30;68.50
16663;DHT22;8445;51.270;9.434;2024-01-11T08:53:56;-7.30;68.50
16663;DHT22;8445;51.270;9.434;2024-01-11T08:56:22;-7.20;68.50
16663;DHT22;8445;51.270;9.434;2024-01-11T08:58:50;-7.10;68.40
16663;DHT22;8445;51.270;9.434;2024-01-11T09:01:17;-7.10;68.40
16663;DHT22;8445;51.270;9.434;2024-01-11T09:03:46;-7.00;68.40
16663;DHT22;8445;51.270;9.434;2024-01-11T09:06:15;-7.00;68.40
16663;DHT22;8445;51.270;9.434;2024-01-11T09:08:41;-6.90;68.40
16663;DHT22;8445;51.270;9.434;2024-01-11T09:11:09;-6.80;68.50
16663;DHT22;8445;51.270;9.434;2024-01-11T09:13:37;-6.70;68.40
16663;DHT22;8445;51.270;9.434;2024-01-11T09:16:05;-6.70;68.50
16663;DHT22;8445;51.270;9.434;2024-01-11T09:18:34;-6.60;68.60
16663;DHT22;8445;51.270;9.434;2024-01-11T09:21:01;-6.50;68.50
16663;DHT22;8445;51.270;9.434;2024-01-11T09:23:27;-6.50;68.40
16663;DHT22;8445;51.270;9.434;2024-01-11T09:25:54;-6.40;68.40
16663;DHT22;8445;51.270;9.434;2024-01-11T09:28:20;-6.30;68.50
16663;DHT22;8445;51.270;9.434;2024-01-11T09:30:48;-6.20;68.50
16663;DHT22;8445;51.270;9.434;2024-01-11T09:33:14;-6.20;68.50
16663;DHT22;8445;51.270;9.434;2024-01-11T09:38:22;-6.10;68.30
16663;DHT22;8445;51.270;9.434;2024-01-11T09:43:32;-6.00;68.40
16663;DHT22;8445;51.270;9.434;2024-01-11T09:46:04;-6.00;68.30
16663;DHT22;8445;51.270;9.434;2024-01-11T09:48:49;-6.00;68.30
16663;DHT22;8445;51.270;9.434;2024-01-11T09:51:20;-5.80;68.20
16663;DHT22;8445;51.270;9.434;2024-01-11T09:53:52;-5.80;68.20
16663;DHT22;8445;51.270;9.434;2024-01-11T09:56:28;-5.80;68.20
16663;DHT22;8445;51.270;9.434;2024-01-11T09:58:54;-5.70;68.20
16663;DHT22;8445;51.270;9.434;2024-01-11T10:01:24;-5.70;68.20
16663;DHT22;8445;51.270;9.434;2024-01-11T10:03:58;-5.60;68.20
16663;DHT22;8445;51.270;9.434;2024-01-11T10:06:25;-5.60;68.20
16663;DHT22;8445;51.270;9.434;2024-01-11T10:08:52;-5.40;68.20
16663;DHT22;8445;51.270;9.434;2024-01-11T10:11:20;-5.40;68.20
16663;DHT22;8445;51.270;9.434;2024-01-11T10:13:57;-5.40;68.20
16663;DHT22;8445;51.270;9.434;2024-01-11T10:16:24;-5.20;68.20
16663;DHT22;8445;51.270;9.434;2024-01-11T10:18:53;-5.20;68.00
16663;DHT22;8445;51.270;9.434;2024-01-11T10:21:20;-5.20;68.00
16663;DHT22;8445;51.270;9.434;2024-01-11T10:23:46;-5.10;68.00
16663;DHT22;8445;51.270;9.434;2024-01-11T10:26:18;-5.00;67.90
16663;DHT22;8445;51.270;9.434;2024-01-11T10:28:47;-5.00;67.90
16663;DHT22;8445;51.270;9.434;2024-01-11T10:31:16;-4.90;68.00
16663;DHT22;8445;51.270;9.434;2024-01-11T10:33:42;-4.80;67.80
16663;DHT22;8445;51.270;9.434;2024-01-11T10:36:11;-4.80;67.80
16663;DHT22;8445;51.270;9.434;2024-01-11T10:38:41;-4.70;67.70
16663;DHT22;8445;51.270;9.434;2024-01-11T10:41:09;-4.60;67.60
16663;DHT22;8445;51.270;9.434;2024-01-11T10:43:38;-4.60;67.60
16663;DHT22;8445;51.270;9.434;2024-01-11T10:46:05;-4.60;67.70
16663;DHT22;8445;51.270;9.434;2024-01-11T10:48:39;-4.50;67.60
16663;DHT22;8445;51.270;9.434;2024-01-11T10:51:12;-4.40;67.60
16663;DHT22;8445;51.270;9.434;2024-01-11T10:53:45;-4.30;67.50
16663;DHT22;8445;51.270;9.434;2024-01-11T10:56:15;-4.30;67.50
16663;DHT22;8445;51.270;9.434;2024-01-11T10:58:43;-4.20;67.40
16663;DHT22;8445;51.270;9.434;2024-01-11T11:01:13;-4.10;67.50
16663;DHT22;8445;51.270;9.434;2024-01-11T11:03:40;-4.00;67.50
16663;DHT22;8445;51.270;9.434;2024-01-11T11:06:11;-4.00;67.50
16663;DHT22;8445;51.270;9.434;2024-01-11T11:08:38;-3.90;67.40
16663;DHT22;8445;51.270;9.434;2024-01-11T11:11:05;-3.80;67.40
16663;DHT22;8445;51.270;9.434;2024-01-11T11:13:32;-3.80;67.30
16663;DHT22;8445;51.270;9.434;2024-01-11T11:16:00;-3.60;67.20
16663;DHT22;8445;51.270;9.434;2024-01-11T11:18:29;-3.60;67.10
16663;DHT22;8445;51.270;9.434;2024-01-11T11:20:57;-3.50;67.00
16663;DHT22;8445;51.270;9.434;2024-01-11T11:23:23;-3.40;67.00
16663;DHT22;8445;51.270;9.434;2024-01-11T11:25:49;-3.30;66.90
16663;DHT22;8445;51.270;9.434;2024-01-11T11:28:22;-3.20;66.70
16663;DHT22;8445;51.270;9.434;2024-01-11T11:30:49;-3.20;66.60
16663;DHT22;8445;51.270;9.434;2024-01-11T11:33:20;-3.10;66.60
16663;DHT22;8445;51.270;9.434;2024-01-11T11:35:48;-3.00;66.40
16663;DHT22;8445;51.270;9.434;2024-01-11T11:38:21;-3.00;66.20
16663;DHT22;8445;51.270;9.434;2024-01-11T11:40:51;-2.90;66.30
16663;DHT22;8445;51.270;9.434;2024-01-11T11:43:20;-2.90;66.30
16663;DHT22;8445;51.270;9.434;2024-01-11T11:45:51;-2.80;66.30
16663;DHT22;8445;51.270;9.434;2024-01-11T11:53:40;-2.50;65.80
16663;DHT22;8445;51.270;9.434;2024-01-11T11:56:08;-2.40;65.70
16663;DHT22;8445;51.270;9.434;2024-01-11T11:58:38;-2.30;65.40
16663;DHT22;8445;51.270;9.434;2024-01-11T12:01:04;-2.20;65.40
16663;DHT22;8445;51.270;9.434;2024-01-11T12:03:34;-2.20;65.40
16663;DHT22;8445;51.270;9.434;2024-01-11T12:06:04;-2.10;65.70
16663;DHT22;8445;51.270;9.434;2024-01-11T12:08:31;-1.90;65.50
16663;DHT22;8445;51.270;9.434;2024-01-11T12:11:00;-1.80;65.20
16663;DHT22;8445;51.270;9.434;2024-01-11T12:13:27;-1.70;64.70
16663;DHT22;8445;51.270;9.434;2024-01-11T12:15:53;-1.60;64.60
16663;DHT22;8445;51.270;9.434;2024-01-11T12:18:19;-1.60;64.10
16663;DHT22;8445;51.270;9.434;2024-01-11T12:20:45;-1.50;64.00
16663;DHT22;8445;51.270;9.434;2024-01-11T12:23:12;-1.50;63.60
16663;DHT22;8445;51.270;9.434;2024-01-11T12:26:15;-1.50;63.60
16663;DHT22;8445;51.270;9.434;2024-01-11T12:37:52;-1.50;63.30
16663;DHT22;8445;51.270;9.434;2024-01-11T12:46:09;-1.30;63.70
16663;DHT22;8445;51.270;9.434;2024-01-11T13:08:49;-0.80;63.50
16663;DHT22;8445;51.270;9.434;2024-01-11T13:16:03;-0.60;63.30
16663;DHT22;8445;51.270;9.434;2024-01-11T13:21:55;-0.50;63.30
16663;DHT22;8445;51.270;9.434;2024-01-11T13:24:22;-0.40;63.50
16663;DHT22;8445;51.270;9.434;2024-01-11T13:44:17;0.00;61.90
16663;DHT22;8445;51.270;9.434;2024-01-11T13:46:43;0.10;62.10
16663;DHT22;8445;51.270;9.434;2024-01-11T13:49:09;0.20;62.20
16663;DHT22;8445;51.270;9.434;2024-01-11T13:51:36;0.30;62.20
16663;DHT22;8445;51.270;9.434;2024-01-11T13:54:03;0.40;61.60
16663;DHT22;8445;51.270;9.434;2024-01-11T13:56:32;0.50;61.10
16663;DHT22;8445;51.270;9.434;2024-01-11T13:59:00;0.60;59.50
16663;DHT22;8445;51.270;9.434;2024-01-11T14:01:26;0.60;58.30
16663;DHT22;8445;51.270;9.434;2024-01-11T14:03:55;0.80;58.80
16663;DHT22;8445;51.270;9.434;2024-01-11T14:06:25;0.80;58.70
16663;DHT22;8445;51.270;9.434;2024-01-11T14:08:51;1.00;57.90
16663;DHT22;8445;51.270;9.434;2024-01-11T14:11:19;1.00;56.10
16663;DHT22;8445;51.270;9.434;2024-01-11T14:13:49;1.10;55.00
16663;DHT22;8445;51.270;9.434;2024-01-11T14:16:15;1.20;54.10
16663;DHT22;8445;51.270;9.434;2024-01-11T14:18:47;1.20;52.70
16663;DHT22;8445;51.270;9.434;2024-01-11T14:21:18;1.30;51.80
16663;DHT22;8445;51.270;9.434;2024-01-11T14:23:44;1.30;51.20
16663;DHT22;8445;51.270;9.434;2024-01-11T14:26:10;1.30;50.80
16663;DHT22;8445;51.270;9.434;2024-01-11T14:28:37;1.30;50.00
16663;DHT22;8445;51.270;9.434;2024-01-11T14:31:08;1.30;50.40
16663;DHT22;8445;51.270;9.434;2024-01-11T14:33:37;1.20;50.30
16663;DHT22;8445;51.270;9.434;2024-01-11T14:36:03;1.20;50.20
16663;DHT22;8445;51.270;9.434;2024-01-11T14:38:32;1.20;50.00
16663;DHT22;8445;51.270;9.434;2024-01-11T14:41:04;1.10;50.30
16663;DHT22;8445;51.270;9.434;2024-01-11T14:43:40;1.00;50.60
16663;DHT22;8445;51.270;9.434;2024-01-11T14:46:06;1.00;50.70
16663;DHT22;8445;51.270;9.434;2024-01-11T14:48:40;0.80;51.40
16663;DHT22;8445;51.270;9.434;2024-01-11T14:51:08;0.80;52.10
16663;DHT22;8445;51.270;9.434;2024-01-11T14:53:34;0.60;52.20
16663;DHT22;8445;51.270;9.434;2024-01-11T14:56:00;0.50;53.20
16663;DHT22;8445;51.270;9.434;2024-01-11T14:58:26;0.40;53.90
16663;DHT22;8445;51.270;9.434;2024-01-11T15:00:53;0.20;54.20
16663;DHT22;8445;51.270;9.434;2024-01-11T15:03:33;0.20;54.60
16663;DHT22;8445;51.270;9.434;2024-01-11T15:05:59;0.00;55.50
16663;DHT22;8445;51.270;9.434;2024-01-11T15:08:40;0.00;56.30
16663;DHT22;8445;51.270;9.434;2024-01-11T15:11:07;-0.10;56.70
16663;DHT22;8445;51.270;9.434;2024-01-11T15:13:35;-0.10;57.00
16663;DHT22;8445;51.270;9.434;2024-01-11T15:16:01;-0.10;57.30
16663;DHT22;8445;51.270;9.434;2024-01-11T15:18:31;-0.20;57.70
16663;DHT22;8445;51.270;9.434;2024-01-11T15:20:56;-0.30;57.90
16663;DHT22;8445;51.270;9.434;2024-01-11T15:23:22;-0.30;58.40
16663;DHT22;8445;51.270;9.434;2024-01-11T15:25:48;-0.40;58.80
16663;DHT22;8445;51.270;9.434;2024-01-11T15:28:14;-0.40;59.10
16663;DHT22;8445;51.270;9.434;2024-01-11T15:30:40;-0.50;59.60
16663;DHT22;8445;51.270;9.434;2024-01-11T15:33:06;-0.50;59.80
16663;DHT22;8445;51.270;9.434;2024-01-11T15:35:32;-0.60;60.00
16663;DHT22;8445;51.270;9.434;2024-01-11T15:37:57;-0.70;60.10
16663;DHT22;8445;51.270;9.434;2024-01-11T15:40:25;-0.70;60.60
16663;DHT22;8445;51.270;9.434;2024-01-11T15:42:51;-0.80;61.00
16663;DHT22;8445;51.270;9.434;2024-01-11T15:45:17;-0.90;61.70
16663;DHT22;8445;51.270;9.434;2024-01-11T15:47:43;-1.00;62.30
16663;DHT22;8445;51.270;9.434;2024-01-11T15:50:09;-1.00;62.60
16663;DHT22;8445;51.270;9.434;2024-01-11T15:52:37;-1.10;62.90
16663;DHT22;8445;51.270;9.434;2024-01-11T15:55:07;-1.10;64.00
16663;DHT22;8445;51.270;9.434;2024-01-11T15:57:35;-1.20;64.60
16663;DHT22;8445;51.270;9.434;2024-01-11T16:00:06;-1.20;65.10
16663;DHT22;8445;51.270;9.434;2024-01-11T16:02:42;-1.20;66.40
16663;DHT22;8445;51.270;9.434;2024-01-11T16:05:09;-1.20;66.20
16663;DHT22;8445;51.270;9.434;2024-01-11T16:07:36;-1.10;66.60
16663;DHT22;8445;51.270;9.434;2024-01-11T16:10:02;-1.10;67.70
16663;DHT22;8445;51.270;9.434;2024-01-11T16:12:29;-1.10;68.60
16663;DHT22;8445;51.270;9.434;2024-01-11T16:14:55;-1.00;69.10
16663;DHT22;8445;51.270;9.434;2024-01-11T16:17:24;-1.00;69.40
16663;DHT22;8445;51.270;9.434;2024-01-11T16:19:53;-1.00;69.70
16663;DHT22;8445;51.270;9.434;2024-01-11T16:22:19;-0.90;69.60
16663;DHT22;8445;51.270;9.434;2024-01-11T16:24:58;-0.90;70.50
16663;DHT22;8445;51.270;9.434;2024-01-11T16:27:25;-0.90;70.50
16663;DHT22;8445;51.270;9.434;2024-01-11T16:29:51;-0.90;71.10
16663;DHT22;8445;51.270;9.434;2024-01-11T16:32:17;-0.90;72.00
16663;DHT22;8445;51.270;9.434;2024-01-11T16:34:44;-0.90;72.10
16663;DHT22;8445;51.270;9.434;2024-01-11T16:37:10;-1.00;72.30
16663;DHT22;8445;51.270;9.434;2024-01-11T16:39:39;-1.00;72.10
16663;DHT22;8445;51.270;9.434;2024-01-11T16:42:06;-1.00;73.30
16663;DHT22;8445;51.270;9.434;2024-01-11T16:44:36;-1.00;73.90
16663;DHT22;8445;51.270;9.434;2024-01-11T16:47:02;-1.00;74.10
16663;DHT22;8445;51.270;9.434;2024-01-11T16:49:29;-1.00;75.10
16663;DHT22;8445;51.270;9.434;2024-01-11T16:51:55;-0.90;75.10
16663;DHT22;8445;51.270;9.434;2024-01-11T16:54:21;-1.00;75.10
16663;DHT22;8445;51.270;9.434;2024-01-11T16:56:47;-1.00;75.40
16663;DHT22;8445;51.270;9.434;2024-01-11T16:59:14;-1.00;75.60
16663;DHT22;8445;51.270;9.434;2024-01-11T17:01:42;-1.00;76.10